Time;durP1;ratioP1;P1;durP2;ratioP2;P2;SDS_P1;SDS_P2;PMS_P1;PMS_P2;Temp;Humidity;BMP_temperature;BMP_pressure;BME280_temperature;BME280_humidity;BME280_pressure;Samples;Min_cycle;Max_cycle;Signal;HPM_P1;HPM_P2
2024/01/07 00:03:59;;;;;;;16.50;9.20;;;;;;;-4.37;72.99;100660.30;218874;1250;58280;-72
2024/01/07 00:08:52;;;;;;;12.40;9.30;;;;;;;-4.40;72.86;100669.55;218711;1251;58382;-73
2024/01/07 00:13:46;;;;;;;16.00;9.20;;;;;;;-4.41;73.24;100668.64;218801;1250;58443;-72
2024/01/07 00:18:39;;;;;;;17.70;9.50;;;;;;;-4.44;73.06;100671.06;218749;1251;65676;-72
2024/01/07 00:23:32;;;;;;;16.50;9.80;;;;;;;-4.49;72.99;100676.11;218871;1252;58236;-72
2024/01/07 00:28:25;;;;;;;15.90;9.70;;;;;;;-4.53;73.41;100676.65;218953;1252;58478;-72
2024/01/07 00:33:17;;;;;;;16.70;10.10;;;;;;;-4.56;73.24;100678.78;218743;1253;58228;-73
2024/01/07 00:38:10;;;;;;;21.20;10.40;;;;;;;-4.64;73.46;100681.77;218944;1251;58323;-73
2024/01/07 00:43:03;;;;;;;15.60;10.20;;;;;;;-4.71;73.40;100684.27;218789;1251;58506;-73
2024/01/07 00:47:56;;;;;;;17.50;9.80;;;;;;;-4.79;73.59;100690.45;218804;1251;58552;-73
2024/01/07 00:52:48;;;;;;;20.60;10.20;;;;;;;-4.86;73.63;100700.86;218934;1251;59356;-72
2024/01/07 00:57:41;;;;;;;16.10;9.90;;;;;;;-4.93;73.53;100702.83;218775;1250;62837;-73
2024/01/07 01:02:35;;;;;;;18.10;9.70;;;;;;;-4.98;73.56;100706.48;218748;1251;58604;-73
2024/01/07 01:07:28;;;;;;;18.80;10.00;;;;;;;-5.04;73.83;100704.70;218855;1251;58356;-73
2024/01/07 01:12:21;;;;;;;19.30;10.00;;;;;;;-5.08;74.00;100708.48;218818;1251;58522;-73
2024/01/07 01:17:14;;;;;;;18.30;10.50;;;;;;;-5.11;74.13;100710.44;218882;1251;58292;-73
2024/01/07 01:22:06;;;;;;;18.70;10.80;;;;;;;-5.15;74.09;100717.18;218847;1251;58416;-73
2024/01/07 01:26:59;;;;;;;18.80;10.70;;;;;;;-5.20;73.96;100718.64;218905;1252;58360;-73
2024/01/07 01:31:52;;;;;;;19.10;10.40;;;;;;;-5.26;74.24;100720.54;218884;1251;58521;-73
2024/01/07 01:36:45;;;;;;;17.40;9.90;;;;;;;-5.28;74.44;100717.88;218767;1251;58556;-73
2024/01/07 01:41:38;;;;;;;14.90;9.40;;;;;;;-5.29;74.50;100722.80;218966;1251;58299;-73
2024/01/07 01:46:31;;;;;;;17.10;9.90;;;;;;;-5.33;74.34;100716.42;218902;1250;58693;-73
2024/01/07 01:51:24;;;;;;;18.40;12.20;;;;;;;-5.36;74.69;100720.61;212729;1251;1003046;-73
2024/01/07 01:56:21;;;;;;;18.00;11.10;;;;;;;-5.35;74.53;100711.23;108795;1252;1015836;-73
2024/01/07 02:01:14;;;;;;;17.50;10.20;;;;;;;-5.35;74.44;100715.45;108849;1250;1051169;-73
2024/01/07 02:06:08;;;;;;;18.90;10.90;;;;;;;-5.36;74.50;100715.20;108843;1250;1015676;-73
2024/01/07 02:11:21;;;;;;;14.50;9.50;;;;;;;-5.37;74.49;100715.61;108824;1251;1015729;-73
2024/01/07 02:16:13;;;;;;;14.00;9.00;;;;;;;-5.39;74.70;100710.44;108712;1252;1066084;-73
2024/01/07 02:21:08;;;;;;;16.50;9.80;;;;;;;-5.40;74.82;100711.65;108845;1253;1015779;-73
2024/01/07 02:26:01;;;;;;;14.70;8.90;;;;;;;-5.42;74.83;100711.00;108841;1251;1050869;-73
2024/01/07 02:30:54;;;;;;;14.10;8.60;;;;;;;-5.45;74.62;100705.85;108859;1250;1015388;-73
2024/01/07 02:35:46;;;;;;;17.20;8.90;;;;;;;-5.48;74.85;100701.92;108767;1253;1015642;-73
2024/01/07 02:40:40;;;;;;;15.00;8.60;;;;;;;-5.46;75.00;100698.00;108759;1251;1016016;-73
2024/01/07 02:45:33;;;;;;;12.80;7.30;;;;;;;-5.48;75.15;100695.52;108773;1251;1015573;-73
2024/01/07 02:50:26;;;;;;;15.20;7.90;;;;;;;-5.48;75.06;100699.86;108861;1251;1015700;-73
2024/01/07 02:55:19;;;;;;;11.90;7.40;;;;;;;-5.49;75.15;100702.29;108784;1252;1015787;-73
2024/01/07 03:00:12;;;;;;;12.80;7.80;;;;;;;-5.49;75.15;100703.21;108818;1253;1016080;-73
2024/01/07 03:05:05;;;;;;;11.20;7.20;;;;;;;-5.51;75.18;100706.40;108919;1251;1016176;-73
2024/01/07 03:09:58;;;;;;;12.90;8.50;;;;;;;-5.55;75.03;100711.12;108816;1251;1015528;-73
2024/01/07 03:14:51;;;;;;;14.00;7.80;;;;;;;-5.59;75.14;100713.52;108831;1251;1015992;-73
2024/01/07 03:19:44;;;;;;;13.30;8.50;;;;;;;-5.57;75.09;100707.13;108871;1250;1015992;-73
2024/01/07 03:24:37;;;;;;;16.20;8.50;;;;;;;-5.58;75.38;100704.25;108785;1253;1015670;-73
2024/01/07 03:29:30;;;;;;;15.20;9.30;;;;;;;-5.61;75.27;100703.21;108835;1251;1016122;-73
2024/01/07 03:34:23;;;;;;;13.40;8.60;;;;;;;-5.65;75.30;100702.70;108859;1250;1016465;-73
2024/01/07 03:39:16;;;;;;;16.90;7.90;;;;;;;-5.69;74.97;100704.05;108772;1252;1016210;-73
2024/01/07 03:44:08;;;;;;;12.90;8.20;;;;;;;-5.75;75.16;100705.65;108791;1250;1016198;-72
2024/01/07 03:49:01;;;;;;;15.00;9.10;;;;;;;-5.83;75.26;100708.23;108801;1252;1016217;-73
2024/01/07 03:53:54;;;;;;;12.80;8.30;;;;;;;-5.87;75.02;100710.91;108797;1251;1015958;-73
2024/01/07 03:58:47;;;;;;;15.70;10.90;;;;;;;-5.94;74.97;100715.07;108894;1251;1015909;-73
2024/01/07 04:03:39;;;;;;;14.60;9.90;;;;;;;-6.01;75.19;100713.01;108767;1253;1015956;-73
2024/01/07 04:08:32;;;;;;;14.60;8.90;;;;;;;-6.04;75.21;100710.84;108884;1250;1015735;-73
2024/01/07 04:13:25;;;;;;;17.60;9.40;;;;;;;-6.09;75.25;100712.60;108871;1250;1015998;-73
2024/01/07 04:18:18;;;;;;;11.70;8.40;;;;;;;-6.12;75.30;100716.28;108887;1251;1015861;-73
2024/01/07 04:23:11;;;;;;;12.90;7.70;;;;;;;-6.11;75.58;100718.02;108853;1251;1015461;-73
2024/01/07 04:28:04;;;;;;;15.40;8.90;;;;;;;-6.18;75.49;100719.75;108773;1251;1015407;-73
2024/01/07 04:32:57;;;;;;;14.70;8.90;;;;;;;-6.23;75.23;100720.27;108824;1251;1015883;-73
2024/01/07 04:37:49;;;;;;;16.80;9.00;;;;;;;-6.30;75.17;100720.20;108847;1250;1015695;-73
2024/01/07 04:42:42;;;;;;;15.20;10.10;;;;;;;-6.32;75.47;100726.25;108769;1250;1015884;-73
2024/01/07 04:47:35;;;;;;;16.00;9.40;;;;;;;-6.34;75.31;100729.97;108796;1251;1015831;-73
2024/01/07 04:52:28;;;;;;;15.00;8.80;;;;;;;-6.36;75.32;100730.48;108814;1253;1015508;-73
2024/01/07 04:57:21;;;;;;;16.20;8.20;;;;;;;-6.36;75.44;100737.20;108789;1252;1015886;-73
2024/01/07 05:02:14;;;;;;;12.60;8.40;;;;;;;-6.37;75.47;100733.44;108810;1251;1015786;-73
2024/01/07 05:07:07;;;;;;;17.00;9.60;;;;;;;-6.36;75.25;100728.81;108831;1251;1015373;-74
2024/01/07 05:12:00;;;;;;;16.70;9.10;;;;;;;-6.39;75.33;100735.16;108771;1251;1016017;-73
2024/01/07 05:16:55;;;;;;;13.70;7.80;;;;;;;-6.35;75.71;100740.17;108848;1253;1015407;-73
2024/01/07 05:21:47;;;;;;;13.60;7.70;;;;;;;-6.36;75.53;100744.84;108800;1252;1058707;-73
2024/01/07 05:26:44;;;;;;;15.30;9.00;;;;;;;-6.34;75.39;100745.52;108833;1251;1016089;-73
2024/01/07 05:31:37;;;;;;;11.30;7.40;;;;;;;-6.34;75.32;100748.69;108874;1251;1065053;-73
2024/01/07 05:36:30;;;;;;;12.90;7.60;;;;;;;-6.33;75.60;100755.23;108803;1251;1015852;-73
2024/01/07 05:41:23;;;;;;;14.40;8.50;;;;;;;-6.35;75.42;100755.24;108848;1251;1015443;-73
2024/01/07 05:46:16;;;;;;;13.90;8.20;;;;;;;-6.34;75.45;100758.51;108809;1253;1015127;-73
2024/01/07 05:51:08;;;;;;;15.70;9.30;;;;;;;-6.34;75.49;100760.20;108743;1251;1015666;-73
2024/01/07 05:56:02;;;;;;;14.20;8.40;;;;;;;-6.36;75.71;100763.55;108789;1251;1015234;-73
2024/01/07 06:00:54;;;;;;;15.00;9.00;;;;;;;-6.37;75.50;100759.61;108792;1253;1016133;-73
2024/01/07 06:05:47;;;;;;;13.70;8.30;;;;;;;-6.39;75.44;100761.77;108814;1251;1015631;-73
2024/01/07 06:10:40;;;;;;;15.20;8.90;;;;;;;-6.42;75.48;100759.29;108863;1251;1015763;-73
2024/01/07 06:15:33;;;;;;;16.80;10.70;;;;;;;-6.41;75.58;100758.23;108801;1252;1015293;-73
2024/01/07 06:20:26;;;;;;;12.40;8.10;;;;;;;-6.44;75.09;100758.52;108816;1251;1016196;-73
2024/01/07 06:25:19;;;;;;;12.80;8.30;;;;;;;-6.49;75.34;100761.61;108863;1253;1015475;-73
2024/01/07 06:30:13;;;;;;;13.90;9.30;;;;;;;-6.53;75.32;100772.29;108765;1251;1016100;-73
2024/01/07 06:35:06;;;;;;;13.20;8.80;;;;;;;-6.54;75.32;100777.02;108870;1251;1015481;-74
2024/01/07 06:39:59;;;;;;;13.70;9.10;;;;;;;-6.58;75.41;100781.29;108756;1251;1016104;-73
2024/01/07 06:44:52;;;;;;;11.70;7.70;;;;;;;-6.56;75.38;100791.36;108876;1251;1016081;-73
2024/01/07 06:49:45;;;;;;;14.10;8.50;;;;;;;-6.55;75.71;100794.85;108564;1251;1193082;-73
2024/01/07 06:54:39;;;;;;;18.10;9.00;;;;;;;-6.50;75.58;100799.13;108773;1250;1016035;-73
2024/01/07 06:59:31;;;;;;;13.20;8.60;;;;;;;-6.46;75.75;100799.94;108782;1250;1015894;-73
2024/01/07 07:04:24;;;;;;;15.60;10.60;;;;;;;-6.45;75.47;100800.90;108765;1251;1015659;-73
2024/01/07 07:09:17;;;;;;;12.90;8.70;;;;;;;-6.41;75.46;100799.53;108830;1251;1015743;-73
2024/01/07 07:14:10;;;;;;;14.10;8.60;;;;;;;-6.40;75.35;100805.88;108738;1251;1015555;-73
2024/01/07 07:19:02;;;;;;;13.20;8.80;;;;;;;-6.38;75.47;100810.77;108768;1254;1015771;-73
2024/01/07 07:23:55;;;;;;;13.60;8.30;;;;;;;-6.35;75.53;100814.04;108788;1251;1015839;-73
2024/01/07 07:28:48;;;;;;;13.40;8.70;;;;;;;-6.27;75.28;100815.08;108780;1251;1015683;-73
2024/01/07 07:33:41;;;;;;;14.10;8.90;;;;;;;-6.19;75.35;100821.54;108807;1251;1015575;-73
2024/01/07 07:38:34;;;;;;;11.60;9.10;;;;;;;-6.10;75.07;100827.35;108779;1252;1015554;-73
2024/01/07 07:43:28;;;;;;;13.80;8.20;;;;;;;-6.07;75.13;100829.13;108781;1251;1015581;-73
2024/01/07 07:48:21;;;;;;;12.50;8.30;;;;;;;-6.01;75.04;100827.54;108808;1251;1015464;-73
2024/01/07 07:53:14;;;;;;;14.70;9.80;;;;;;;-5.90;74.99;100834.58;108703;1251;1016069;-73
2024/01/07 07:58:07;;;;;;;14.90;9.50;;;;;;;-5.80;74.97;100837.73;108759;1251;1015161;-73
2024/01/07 08:03:00;;;;;;;12.00;7.90;;;;;;;-5.67;74.98;100830.88;108725;1255;1015600;-73
2024/01/07 08:07:53;;;;;;;9.60;6.70;;;;;;;-5.63;74.42;100835.29;108769;1251;1015816;-73
2024/01/07 08:12:46;;;;;;;8.80;5.70;;;;;;;-5.60;74.44;100841.74;108823;1251;1016356;-73
2024/01/07 08:17:39;;;;;;;11.70;7.50;;;;;;;-5.52;74.42;100850.42;108790;1251;1015790;-73
2024/01/07 08:22:32;;;;;;;16.30;8.40;;;;;;;-5.41;74.45;100850.98;108764;1255;1015697;-73
2024/01/07 08:27:25;;;;;;;9.10;6.20;;;;;;;-5.33;74.40;100859.22;108741;1251;1016097;-73
2024/01/07 08:32:19;;;;;;;8.80;6.30;;;;;;;-5.29;73.56;100860.19;108781;1251;1016156;-73
2024/01/07 08:37:11;;;;;;;9.10;6.10;;;;;;;-5.24;73.48;100862.30;108808;1251;1015957;-73
2024/01/07 08:42:04;;;;;;;8.80;5.60;;;;;;;-5.21;72.99;100863.91;108777;1251;1016092;-73
2024/01/07 08:46:57;;;;;;;10.30;5.90;;;;;;;-5.13;72.97;100866.23;108837;1251;1016185;-73
2024/01/07 08:51:52;;;;;;;7.10;5.80;;;;;;;-5.08;72.88;100866.38;108766;1251;1071282;-73
2024/01/07 08:56:45;;;;;;;7.70;5.70;;;;;;;-5.07;72.63;100872.98;108679;1251;1016398;-73
2024/01/07 09:01:38;;;;;;;9.20;5.70;;;;;;;-5.05;72.03;100876.86;108789;1251;1015808;-73
2024/01/07 09:06:32;;;;;;;9.10;6.10;;;;;;;-5.01;71.96;100875.69;108787;1251;1015794;-73
2024/01/07 09:11:25;;;;;;;7.70;6.10;;;;;;;-5.01;71.96;100872.98;108732;1250;1015986;-72
2024/01/07 09:16:18;;;;;;;8.10;5.70;;;;;;;-4.97;72.08;100874.48;108682;1250;1015627;-73
2024/01/07 09:21:11;;;;;;;8.70;5.30;;;;;;;-5.00;71.94;100881.54;108821;1251;1015568;-73
2024/01/07 09:26:04;;;;;;;9.90;6.20;;;;;;;-5.09;72.01;100887.55;108739;1251;1016256;-73
2024/01/07 09:30:57;;;;;;;6.50;4.70;;;;;;;-5.12;71.78;100880.23;108750;1251;1015857;-73
2024/01/07 09:35:53;;;;;;;22.60;14.90;;;;;;;-5.16;72.08;100870.75;108733;1254;1015913;-73
2024/01/07 09:40:54;;;;;;;9.20;6.90;;;;;;;-5.17;72.36;100867.13;108681;1251;1071052;-73
2024/01/07 09:45:48;;;;;;;8.20;5.90;;;;;;;-5.14;72.05;100866.20;108674;1251;1015898;-73
2024/01/07 09:50:41;;;;;;;11.90;7.60;;;;;;;-5.14;72.37;100868.05;108730;1251;1015550;-73
2024/01/07 09:55:47;;;;;;;7.20;5.60;;;;;;;-5.17;71.93;100872.39;108706;1251;1072924;-73
2024/01/07 10:00:40;;;;;;;12.40;5.80;;;;;;;-5.29;71.64;100876.24;108770;1251;1066312;-73
2024/01/07 10:05:33;;;;;;;10.10;7.00;;;;;;;-5.40;71.77;100877.70;108703;1251;1015871;-73
2024/01/07 10:10:26;;;;;;;12.00;8.10;;;;;;;-5.51;71.72;100877.00;108745;1251;1015998;-73
2024/01/07 10:15:19;;;;;;;9.30;7.10;;;;;;;-5.53;71.98;100876.96;108834;1251;1016086;-73
2024/01/07 10:20:12;;;;;;;9.20;6.70;;;;;;;-5.52;72.02;100872.16;108681;1251;1015567;-73
2024/01/07 10:25:06;;;;;;;8.70;6.20;;;;;;;-5.46;72.15;100871.02;108691;1251;1015710;-73
2024/01/07 10:29:59;;;;;;;9.80;5.90;;;;;;;-5.35;72.24;100873.94;108681;1251;1015758;-73
2024/01/07 10:34:59;;;;;;;8.40;5.80;;;;;;;-5.31;71.61;100868.63;108727;1251;1015917;-73
2024/01/07 10:39:52;;;;;;;9.00;6.20;;;;;;;-5.39;71.22;100864.52;108697;1251;1057417;-74
2024/01/07 10:44:45;;;;;;;8.40;5.40;;;;;;;-5.48;71.11;100861.75;108820;1251;1016149;-72
2024/01/07 10:49:44;;;;;;;9.60;6.10;;;;;;;-5.48;71.26;100862.58;108727;1251;1016009;-73
2024/01/07 10:54:37;;;;;;;10.20;6.50;;;;;;;-5.45;71.06;100863.34;108731;1251;1070862;-73
2024/01/07 10:59:33;;;;;;;13.60;8.70;;;;;;;-5.48;71.19;100865.27;108731;1251;1015783;-72
2024/01/07 11:04:38;;;;;;;8.00;6.00;;;;;;;-5.42;71.27;100867.63;108744;1251;1058436;-73
2024/01/07 11:09:40;;;;;;;12.00;7.70;;;;;;;-5.26;71.59;100864.14;108798;1251;1071798;-73
2024/01/07 11:14:44;;;;;;;7.70;5.60;;;;;;;-5.13;71.08;100866.42;108793;1251;1065672;-72
2024/01/07 11:19:56;;;;;;;8.20;6.20;;;;;;;-5.12;70.80;100867.52;108736;1251;1070666;-72
2024/01/07 11:25:30;;;;;;;8.60;5.90;;;;;;;-4.99;70.90;100863.84;108802;1251;1050771;-74
2024/01/07 11:30:23;;;;;;;10.70;7.50;;;;;;;-4.99;71.00;100864.50;108779;1251;1059133;-72
2024/01/07 11:35:16;;;;;;;7.10;5.30;;;;;;;-5.03;70.61;100869.81;108700;1251;1015873;-72
2024/01/07 11:40:11;;;;;;;10.30;7.10;;;;;;;-5.13;70.82;100866.91;108746;1251;1015947;-71
2024/01/07 11:45:04;;;;;;;9.50;6.60;;;;;;;-5.12;70.77;100864.82;108742;1251;1070708;-72
2024/01/07 11:49:57;;;;;;;8.10;6.00;;;;;;;-5.06;70.88;100863.99;108724;1251;1016170;-72
2024/01/07 11:54:50;;;;;;;9.80;7.10;;;;;;;-5.01;70.86;100860.13;108752;1251;1015972;-72
2024/01/07 11:59:43;;;;;;;8.60;7.20;;;;;;;-4.98;70.79;100862.58;108743;1251;1015667;-72
2024/01/07 12:04:37;;;;;;;12.70;7.80;;;;;;;-5.04;70.43;100863.92;108645;1250;1016855;-72
2024/01/07 12:09:30;;;;;;;10.70;7.80;;;;;;;-5.15;70.21;100868.79;108757;1251;1015737;-72
2024/01/07 12:14:23;;;;;;;10.10;7.10;;;;;;;-5.24;70.34;100874.14;108660;1251;1016321;-73
2024/01/07 12:19:16;;;;;;;10.30;7.20;;;;;;;-5.33;70.04;100881.31;108683;1253;1015709;-73
2024/01/07 12:24:08;;;;;;;10.20;6.30;;;;;;;-5.40;70.24;100881.27;108720;1251;1015761;-73
2024/01/07 12:29:06;;;;;;;8.40;6.40;;;;;;;-5.44;69.90;100888.56;108700;1251;1015899;-73
2024/01/07 12:33:58;;;;;;;;;;;;;;;-5.42;70.42;100897.35;108761;1251;1070178;-73
2024/01/07 12:38:54;;;;;;;11.30;6.10;;;;;;;-5.44;69.89;100891.79;108590;1253;1015658;-72
2024/01/07 12:43:47;;;;;;;9.40;6.70;;;;;;;-5.40;70.05;100892.44;108583;1253;1057871;-73
2024/01/07 12:48:40;;;;;;;11.20;7.10;;;;;;;-5.32;69.94;100892.36;108637;1253;1015571;-73
2024/01/07 12:53:33;;;;;;;13.00;6.90;;;;;;;-5.31;69.84;100893.69;108632;1252;1015610;-72
2024/01/07 12:58:25;;;;;;;11.10;7.40;;;;;;;-5.41;69.47;100904.39;108571;1252;1016640;-73
2024/01/07 13:03:19;;;;;;;11.80;6.90;;;;;;;-5.52;69.77;100904.11;108630;1252;1016102;-73
2024/01/07 13:08:15;;;;;;;9.60;6.60;;;;;;;-5.47;70.02;100903.81;108605;1253;1015725;-72
2024/01/07 13:13:09;;;;;;;9.20;6.80;;;;;;;-5.37;70.13;100906.34;108593;1253;1073033;-74
2024/01/07 13:18:07;;;;;;;9.90;6.40;;;;;;;-5.39;69.97;100913.98;108658;1252;1065425;-73
2024/01/07 13:23:01;;;;;;;10.40;7.10;;;;;;;-5.44;69.84;100916.45;108616;1252;1016269;-73
2024/01/07 13:27:53;;;;;;;9.50;6.10;;;;;;;-5.53;69.65;100918.55;108634;1252;1015814;-73
2024/01/07 13:32:46;;;;;;;6.70;6.00;;;;;;;-5.65;69.50;100918.88;108663;1252;1016232;-73
2024/01/07 13:37:41;;;;;;;8.60;6.10;;;;;;;-5.76;69.52;100920.81;108890;1251;1015752;-73
2024/01/07 13:42:34;;;;;;;9.50;6.70;;;;;;;-5.83;70.01;100923.48;108820;1251;1065494;-74
2024/01/07 13:47:27;;;;;;;12.90;7.60;;;;;;;-5.91;69.79;100925.30;108738;1251;1015652;-73
2024/01/07 13:52:20;;;;;;;9.50;6.70;;;;;;;-6.01;69.83;100930.70;108835;1251;1015998;-73
2024/01/07 13:57:13;;;;;;;11.30;7.20;;;;;;;-6.11;70.05;100933.05;108778;1251;1015958;-73
2024/01/07 14:02:09;;;;;;;10.30;7.00;;;;;;;-6.20;69.93;100934.35;108835;1251;1015684;-73
2024/01/07 14:07:02;;;;;;;11.70;6.90;;;;;;;-6.24;70.02;100933.45;108728;1250;1065525;-73
2024/01/07 14:11:54;;;;;;;11.10;7.20;;;;;;;-6.34;69.96;100944.56;108771;1251;1016077;-73
2024/01/07 14:16:47;;;;;;;10.80;6.90;;;;;;;-6.42;70.04;100956.52;108795;1251;1016074;-73
2024/01/07 14:21:40;;;;;;;10.00;6.50;;;;;;;-6.55;69.71;100965.85;108840;1251;1015709;-74
2024/01/07 14:26:33;;;;;;;13.50;7.60;;;;;;;-6.65;70.04;100965.66;108740;1250;1016178;-73
2024/01/07 14:31:25;;;;;;;10.40;7.10;;;;;;;-6.69;70.32;100963.92;108684;1251;1015945;-74
2024/01/07 14:36:18;;;;;;;10.50;6.40;;;;;;;-6.74;70.05;100970.56;108679;1253;1015417;-73
2024/01/07 14:41:11;;;;;;;11.60;6.30;;;;;;;-6.80;70.22;100964.42;108808;1250;1016022;-73
2024/01/07 14:46:04;;;;;;;12.40;7.10;;;;;;;-6.86;70.25;100976.33;108792;1250;1015810;-73
2024/01/07 14:50:57;;;;;;;14.60;7.70;;;;;;;-6.92;70.24;100986.45;108684;1251;1016326;-74
2024/01/07 14:55:50;;;;;;;15.70;9.20;;;;;;;-6.94;70.39;100985.92;108733;1251;1016071;-74
2024/01/07 15:00:43;;;;;;;11.10;6.80;;;;;;;-6.96;70.42;100990.36;108574;1255;1015941;-73
2024/01/07 15:05:36;;;;;;;14.30;8.20;;;;;;;-6.99;70.19;100999.32;108706;1251;1016213;-73
2024/01/07 15:10:29;;;;;;;11.00;6.80;;;;;;;-7.05;69.83;101002.94;108681;1250;1015788;-73
2024/01/07 15:15:23;;;;;;;14.90;6.80;;;;;;;-7.14;69.71;101005.36;108684;1250;1015702;-73
2024/01/07 15:20:16;;;;;;;11.00;6.60;;;;;;;-7.22;69.51;101006.09;108798;1251;1065616;-73
2024/01/07 15:25:10;;;;;;;23.90;10.80;;;;;;;-7.26;69.54;101005.76;108679;1251;1016010;-73
2024/01/07 15:30:05;;;;;;;21.80;10.90;;;;;;;-7.32;69.00;101007.39;108699;1251;1015699;-74
2024/01/07 15:34:58;;;;;;;13.30;7.80;;;;;;;-7.42;69.04;101011.59;108662;1251;1058560;-73
2024/01/07 15:39:51;;;;;;;22.80;10.50;;;;;;;-7.47;68.82;101020.14;108769;1250;1016089;-73
2024/01/07 15:44:44;;;;;;;22.00;9.90;;;;;;;-7.52;68.63;101033.16;108735;1251;1016222;-73
2024/01/07 15:49:37;;;;;;;16.10;10.10;;;;;;;-7.57;68.48;101030.87;108729;1251;1015438;-73
2024/01/07 15:54:30;;;;;;;18.80;8.90;;;;;;;-7.66;67.83;101030.65;108698;1252;1016037;-73
2024/01/07 15:59:23;;;;;;;14.30;7.00;;;;;;;-7.69;68.36;101036.50;108717;1251;1015388;-73
2024/01/07 16:04:16;;;;;;;23.50;12.70;;;;;;;-7.63;68.41;101039.50;108673;1252;1015958;-73
2024/01/07 16:09:14;;;;;;;13.20;7.30;;;;;;;-7.61;68.22;101046.95;108739;1251;1065556;-73
2024/01/07 16:14:07;;;;;;;16.50;9.10;;;;;;;-7.62;67.81;101052.92;108759;1251;1071255;-73
2024/01/07 16:19:00;;;;;;;19.80;9.70;;;;;;;-7.73;67.04;101054.66;108719;1251;1015709;-73
2024/01/07 16:23:53;;;;;;;15.10;9.20;;;;;;;-7.83;67.03;101057.67;108766;1251;1015514;-73
2024/01/07 16:28:46;;;;;;;16.70;8.90;;;;;;;-7.86;67.23;101064.29;108755;1251;1015772;-73
2024/01/07 16:33:39;;;;;;;26.10;14.60;;;;;;;-7.89;66.90;101067.80;108803;1251;1015788;-73
2024/01/07 16:38:34;;;;;;;12.40;7.80;;;;;;;-7.92;66.85;101073.35;108691;1251;1015977;-74
2024/01/07 16:43:31;;;;;;;20.30;9.70;;;;;;;-7.95;66.82;101079.10;108699;1251;1051286;-74
2024/01/07 16:48:24;;;;;;;17.30;11.40;;;;;;;-7.99;66.90;101085.23;108690;1251;1058477;-73
2024/01/07 16:53:36;;;;;;;13.60;7.90;;;;;;;-8.01;66.83;101093.11;108711;1251;1073493;-73
2024/01/07 16:58:29;;;;;;;15.50;7.20;;;;;;;-8.06;66.79;101100.59;108754;1251;1015907;-72
2024/01/07 17:03:29;;;;;;;12.20;7.00;;;;;;;-8.12;66.73;101106.80;108716;1251;1015704;-72
2024/01/07 17:08:28;;;;;;;13.20;7.10;;;;;;;-8.20;66.48;101110.55;108678;1251;1051148;-73
2024/01/07 17:13:28;;;;;;;12.20;7.50;;;;;;;-8.28;66.59;101115.83;108739;1251;1058319;-75
2024/01/07 17:18:23;;;;;;;17.80;8.60;;;;;;;-8.36;66.07;101118.70;108761;1251;1015807;-73
2024/01/07 17:23:25;;;;;;;18.30;8.90;;;;;;;-8.39;66.77;101118.24;108753;1251;1063854;-73
2024/01/07 17:28:19;;;;;;;16.00;7.90;;;;;;;-8.38;66.65;101129.27;108709;1251;1071128;-74
2024/01/07 17:39:49;;;;;;;14.80;7.50;;;;;;;-8.37;66.59;101142.11;108345;1256;1058336;-73
2024/01/07 17:51:40;;;;;;;15.60;8.50;;;;;;;-8.51;66.51;101161.37;108235;1256;1065658;-74
2024/01/07 17:57:04;;;;;;;17.70;9.50;;;;;;;-8.56;65.83;101164.38;108231;1259;1073623;-73
2024/01/07 18:01:57;;;;;;;15.50;8.20;;;;;;;-8.63;66.06;101172.67;108275;1257;1016123;-73
2024/01/07 18:06:50;;;;;;;17.30;9.90;;;;;;;-8.69;66.06;101171.81;108352;1252;1016541;-74
2024/01/07 18:11:44;;;;;;;17.10;9.40;;;;;;;-8.71;66.30;101174.91;108744;1252;1015714;-74
2024/01/07 18:16:38;;;;;;;16.50;8.80;;;;;;;-8.69;66.62;101179.63;108684;1254;1015740;-73
2024/01/07 18:21:31;;;;;;;17.10;9.40;;;;;;;-8.70;66.35;101186.45;108750;1253;1071289;-74
2024/01/07 18:26:26;;;;;;;20.80;10.00;;;;;;;-8.76;66.09;101194.05;108693;1252;1015940;-74
2024/01/07 18:31:20;;;;;;;15.40;9.60;;;;;;;-8.84;66.25;101200.27;108689;1254;1058507;-74
2024/01/07 18:36:15;;;;;;;19.20;8.40;;;;;;;-8.85;66.45;101207.83;108715;1251;1072867;-74
2024/01/07 18:41:08;;;;;;;20.60;10.20;;;;;;;-8.87;66.53;101205.33;108724;1251;1066024;-74
2024/01/07 18:46:01;;;;;;;16.30;8.30;;;;;;;-8.92;66.39;101207.83;108693;1251;1015705;-74
2024/01/07 18:50:55;;;;;;;18.50;8.90;;;;;;;-9.00;66.30;101210.89;108662;1251;1015721;-75
2024/01/07 18:55:48;;;;;;;22.00;11.70;;;;;;;-9.07;66.20;101212.45;108753;1251;1015951;-74
2024/01/07 19:00:41;;;;;;;23.40;12.40;;;;;;;-9.13;66.23;101218.70;108731;1255;1015724;-74
2024/01/07 19:05:34;;;;;;;39.90;16.10;;;;;;;-9.21;66.43;101228.90;108704;1251;1016172;-74
2024/01/07 19:10:27;;;;;;;28.30;14.40;;;;;;;-9.22;66.61;101235.21;108708;1251;1015677;-73
2024/01/07 19:15:24;;;;;;;42.60;19.40;;;;;;;-9.27;66.55;101236.45;108749;1251;1015839;-73
2024/01/07 19:20:17;;;;;;;29.20;13.90;;;;;;;-9.31;66.60;101239.38;108781;1251;1057745;-73
2024/01/07 19:25:13;;;;;;;26.80;13.30;;;;;;;-9.34;66.76;101245.14;108720;1251;1015726;-73
2024/01/07 19:30:07;;;;;;;35.10;18.60;;;;;;;-9.36;66.96;101248.65;108695;1251;1064922;-73
2024/01/07 19:35:00;;;;;;;24.40;13.70;;;;;;;-9.37;66.99;101254.23;108759;1250;1071065;-73
2024/01/07 19:39:56;;;;;;;33.10;17.30;;;;;;;-9.45;66.84;101255.86;108708;1251;1015720;-73
2024/01/07 19:44:49;;;;;;;18.60;9.40;;;;;;;-9.50;66.83;101263.79;108709;1250;1059650;-73
2024/01/07 19:49:42;;;;;;;21.00;9.60;;;;;;;-9.55;66.78;101264.79;108760;1251;1015655;-73
2024/01/07 19:54:35;;;;;;;19.00;11.50;;;;;;;-9.59;66.87;101268.53;108795;1251;1015971;-73
2024/01/07 19:59:28;;;;;;;19.00;9.70;;;;;;;-9.61;66.75;101278.57;108690;1251;1015606;-73
2024/01/07 20:04:23;;;;;;;20.10;12.20;;;;;;;-9.69;66.55;101285.77;108741;1252;1015708;-73
2024/01/07 20:09:16;;;;;;;17.40;10.80;;;;;;;-9.71;66.99;101288.09;108756;1251;1057737;-74
2024/01/07 20:14:12;;;;;;;20.20;9.60;;;;;;;-9.72;66.91;101288.42;108750;1251;1015932;-74
2024/01/07 20:19:05;;;;;;;17.20;9.80;;;;;;;-9.75;66.75;101295.52;108765;1250;1065657;-74
2024/01/07 20:23:59;;;;;;;19.20;11.90;;;;;;;-9.78;67.04;101299.17;108737;1251;1016126;-74
2024/01/07 20:28:54;;;;;;;20.90;11.40;;;;;;;-9.78;66.92;101300.94;108748;1250;1016014;-73
2024/01/07 20:33:47;;;;;;;16.60;9.10;;;;;;;-9.79;67.26;101300.98;108751;1251;1015528;-73
2024/01/07 20:38:41;;;;;;;18.40;9.90;;;;;;;-9.77;67.29;101308.91;108718;1253;1015815;-74
2024/01/07 20:43:34;;;;;;;23.90;11.80;;;;;;;-9.79;67.07;101310.21;108616;1254;1015632;-75
2024/01/07 20:48:27;;;;;;;20.70;11.00;;;;;;;-9.83;67.17;101307.63;108701;1251;1015617;-75
2024/01/07 20:53:22;;;;;;;22.40;10.80;;;;;;;-9.84;67.14;101317.71;108715;1250;1050958;-74
2024/01/07 20:58:16;;;;;;;23.50;11.50;;;;;;;-9.85;67.44;101315.16;108714;1251;1016194;-74
2024/01/07 21:03:10;;;;;;;19.70;10.00;;;;;;;-9.81;67.54;101316.92;108766;1251;1016082;-75
2024/01/07 21:08:03;;;;;;;19.60;10.10;;;;;;;-9.80;67.27;101320.97;108770;1252;1065746;-74
2024/01/07 21:12:56;;;;;;;17.00;8.50;;;;;;;-9.86;67.18;101319.09;108672;1251;1015687;-74
2024/01/07 21:17:51;;;;;;;16.80;8.40;;;;;;;-9.88;67.16;101326.34;108685;1255;1050715;-74
2024/01/07 21:22:44;;;;;;;18.60;10.00;;;;;;;-9.89;67.38;101336.48;108717;1251;1015525;-74
2024/01/07 21:27:37;;;;;;;22.50;8.70;;;;;;;-9.91;67.24;101336.55;108723;1251;1016383;-74
2024/01/07 21:32:32;;;;;;;19.90;9.80;;;;;;;-9.94;67.28;101337.97;108770;1250;1016526;-74
2024/01/07 21:37:25;;;;;;;17.50;8.40;;;;;;;-9.96;67.44;101341.62;108685;1253;1070871;-75
2024/01/07 21:42:18;;;;;;;19.30;9.10;;;;;;;-9.99;67.18;101348.02;108696;1251;1016044;-74
2024/01/07 21:47:13;;;;;;;17.20;7.80;;;;;;;-10.04;67.46;101346.17;108798;1251;1015607;-75
2024/01/07 21:52:06;;;;;;;17.10;8.30;;;;;;;-10.03;67.43;101350.99;108760;1251;1073843;-74
2024/01/07 21:56:59;;;;;;;19.50;10.00;;;;;;;-10.05;67.49;101356.78;108734;1251;1015602;-74
2024/01/07 22:01:51;;;;;;;15.20;8.90;;;;;;;-10.05;67.45;101361.14;108693;1251;1015951;-74